sensor_id;sensor_type;location;lat;lon;timestamp;temperature;humidity
11107;DHT22;5607;48.302;14.294;2024-02-28T00:00:05;7.80;1.00
11107;DHT22;5607;48.302;14.294;2024-02-28T00:02:53;7.80;1.00
11107;DHT22;5607;48.302;14.294;2024-02-28T00:05:39;7.90;1.00
11107;DHT22;5607;48.302;14.294;2024-02-28T00:08:26;7.80;1.00
11107;DHT22;5607;48.302;14.294;2024-02-28T00:11:13;7.80;1.00
11107;DHT22;5607;48.302;14.294;2024-02-28T00:13:59;7.80;1.00
11107;DHT22;5607;48.302;14.294;2024-02-28T00:16:48;7.70;1.00
11107;DHT22;5607;48.302;14.294;2024-02-28T00:19:37;7.70;1.00
11107;DHT22;5607;48.302;14.294;2024-02-28T00:22:24;7.70;1.00
11107;DHT22;5607;48.302;14.294;2024-02-28T00:25:11;7.80;1.00
11107;DHT22;5607;48.302;14.294;2024-02-28T00:27:58;7.80;1.00
11107;DHT22;5607;48.302;14.294;2024-02-28T00:30:45;7.70;1.00
11107;DHT22;5607;48.302;14.294;2024-02-28T00:33:32;7.70;1.00
11107;DHT22;5607;48.302;14.294;2024-02-28T00:36:19;7.70;1.00
11107;DHT22;5607;48.302;14.294;2024-02-28T00:39:06;7.70;1.00
11107;DHT22;5607;48.302;14.294;2024-02-28T00:44:44;7.60;1.00
11107;DHT22;5607;48.302;14.294;2024-02-28T00:50:36;7.60;1.00
11107;DHT22;5607;48.302;14.294;2024-02-28T00:53:22;7.50;1.00
11107;DHT22;5607;48.302;14.294;2024-02-28T00:56:09;7.50;1.00
11107;DHT22;5607;48.302;14.294;2024-02-28T00:58:55;7.40;1.00
11107;DHT22;5607;48.302;14.294;2024-02-28T01:01:43;7.40;1.00
11107;DHT22;5607;48.302;14.294;2024-02-28T01:04:30;7.40;1.00
11107;DHT22;5607;48.302;14.294;2024-02-28T01:07:18;7.40;1.00
11107;DHT22;5607;48.302;14.294;2024-02-28T01:10:04;7.40;1.00
11107;DHT22;5607;48.302;14.294;2024-02-28T01:12:52;7.50;1.00
11107;DHT22;5607;48.302;14.294;2024-02-28T01:15:39;7.50;1.00
11107;DHT22;5607;48.302;14.294;2024-02-28T01:18:27;7.40;1.00
11107;DHT22;5607;48.302;14.294;2024-02-28T01:21:16;7.40;1.00
11107;DHT22;5607;48.302;14.294;2024-02-28T01:24:03;7.40;1.00
11107;DHT22;5607;48.302;14.294;2024-02-28T01:26:50;7.40;1.00
11107;DHT22;5607;48.302;14.294;2024-02-28T01:29:37;7.40;1.00
11107;DHT22;5607;48.302;14.294;2024-02-28T01:32:23;7.40;1.00
11107;DHT22;5607;48.302;14.294;2024-02-28T01:35:10;7.40;1.00
11107;DHT22;5607;48.302;14.294;2024-02-28T01:37:57;7.30;1.00
11107;DHT22;5607;48.302;14.294;2024-02-28T01:40:44;7.20;1.00
11107;DHT22;5607;48.302;14.294;2024-02-28T01:43:32;7.20;1.00
11107;DHT22;5607;48.302;14.294;2024-02-28T01:46:28;7.10;1.00
11107;DHT22;5607;48.302;14.294;2024-02-28T01:49:16;7.10;1.00
11107;DHT22;5607;48.302;14.294;2024-02-28T01:52:03;7.00;1.00
11107;DHT22;5607;48.302;14.294;2024-02-28T01:54:50;7.00;1.00
11107;DHT22;5607;48.302;14.294;2024-02-28T01:57:37;6.90;1.00
11107;DHT22;5607;48.302;14.294;2024-02-28T02:00:24;7.00;1.00
11107;DHT22;5607;48.302;14.294;2024-02-28T02:03:13;7.00;1.00
11107;DHT22;5607;48.302;14.294;2024-02-28T02:06:01;7.00;1.00
11107;DHT22;5607;48.302;14.294;2024-02-28T02:08:49;7.00;1.00
11107;DHT22;5607;48.302;14.294;2024-02-28T02:11:36;7.10;1.00
11107;DHT22;5607;48.302;14.294;2024-02-28T02:14:24;7.10;1.00
11107;DHT22;5607;48.302;14.294;2024-02-28T02:17:11;7.10;1.00
11107;DHT22;5607;48.302;14.294;2024-02-28T02:19:57;7.10;1.00
11107;DHT22;5607;48.302;14.294;2024-02-28T02:22:44;7.10;1.00
11107;DHT22;5607;48.302;14.294;2024-02-28T02:25:31;7.00;1.00
11107;DHT22;5607;48.302;14.294;2024-02-28T02:28:17;6.90;1.00
11107;DHT22;5607;48.302;14.294;2024-02-28T02:31:04;6.90;1.00
11107;DHT22;5607;48.302;14.294;2024-02-28T02:33:51;6.70;1.00
11107;DHT22;5607;48.302;14.294;2024-02-28T02:36:37;6.70;1.00
11107;DHT22;5607;48.302;14.294;2024-02-28T02:39:24;6.80;1.00
11107;DHT22;5607;48.302;14.294;2024-02-28T02:42:10;6.90;1.00
11107;DHT22;5607;48.302;14.294;2024-02-28T02:44:59;6.90;1.00
11107;DHT22;5607;48.302;14.294;2024-02-28T02:47:46;6.80;1.00
11107;DHT22;5607;48.302;14.294;2024-02-28T02:50:33;6.70;1.00
11107;DHT22;5607;48.302;14.294;2024-02-28T02:53:19;6.80;1.00
11107;DHT22;5607;48.302;14.294;2024-02-28T02:56:06;6.80;1.00
11107;DHT22;5607;48.302;14.294;2024-02-28T02:58:53;7.00;1.00
11107;DHT22;5607;48.302;14.294;2024-02-28T03:01:40;7.00;1.00
11107;DHT22;5607;48.302;14.294;2024-02-28T03:04:26;6.90;1.00
11107;DHT22;5607;48.302;14.294;2024-02-28T03:07:13;6.80;1.00
11107;DHT22;5607;48.302;14.294;2024-02-28T03:10:00;6.70;1.00
11107;DHT22;5607;48.302;14.294;2024-02-28T03:12:47;6.60;1.00
11107;DHT22;5607;48.302;14.294;2024-02-28T03:15:34;6.40;1.00
11107;DHT22;5607;48.302;14.294;2024-02-28T03:18:21;6.40;1.00
11107;DHT22;5607;48.302;14.294;2024-02-28T03:21:07;6.40;1.00
11107;DHT22;5607;48.302;14.294;2024-02-28T03:23:54;6.60;1.00
11107;DHT22;5607;48.302;14.294;2024-02-28T03:26:41;6.60;1.00
11107;DHT22;5607;48.302;14.294;2024-02-28T03:29:28;6.70;1.00
11107;DHT22;5607;48.302;14.294;2024-02-28T03:32:15;6.70;1.00
11107;DHT22;5607;48.302;14.294;2024-02-28T03:35:01;6.70;1.00
11107;DHT22;5607;48.302;14.294;2024-02-28T03:37:48;6.70;1.00
11107;DHT22;5607;48.302;14.294;2024-02-28T03:40:35;6.60;1.00
11107;DHT22;5607;48.302;14.294;2024-02-28T03:43:21;6.60;1.00
11107;DHT22;5607;48.302;14.294;2024-02-28T03:46:08;6.50;1.00
11107;DHT22;5607;48.302;14.294;2024-02-28T03:48:55;6.50;1.00
11107;DHT22;5607;48.302;14.294;2024-02-28T03:51:42;6.50;1.00
11107;DHT22;5607;48.302;14.294;2024-02-28T03:54:29;6.40;1.00
11107;DHT22;5607;48.302;14.294;2024-02-28T03:57:15;6.40;1.00
11107;DHT22;5607;48.302;14.294;2024-02-28T04:00:02;6.40;1.00
11107;DHT22;5607;48.302;14.294;2024-02-28T04:02:50;6.50;1.00
11107;DHT22;5607;48.302;14.294;2024-02-28T04:05:37;6.40;1.00
11107;DHT22;5607;48.302;14.294;2024-02-28T04:08:24;6.50;1.00
11107;DHT22;5607;48.302;14.294;2024-02-28T04:11:10;6.50;1.00
11107;DHT22;5607;48.302;14.294;2024-02-28T04:13:57;6.50;1.00
11107;DHT22;5607;48.302;14.294;2024-02-28T04:16:43;6.50;1.00
11107;DHT22;5607;48.302;14.294;2024-02-28T04:19:33;6.60;1.00
11107;DHT22;5607;48.302;14.294;2024-02-28T04:22:23;6.70;1.00
11107;DHT22;5607;48.302;14.294;2024-02-28T04:25:10;6.80;1.00
11107;DHT22;5607;48.302;14.294;2024-02-28T04:27:57;6.90;1.00
11107;DHT22;5607;48.302;14.294;2024-02-28T04:30:45;7.00;1.00
11107;DHT22;5607;48.302;14.294;2024-02-28T04:33:33;7.00;1.00
11107;DHT22;5607;48.302;14.294;2024-02-28T04:36:20;7.00;1.00
11107;DHT22;5607;48.302;14.294;2024-02-28T04:39:06;7.00;1.00
11107;DHT22;5607;48.302;14.294;2024-02-28T04:41:54;7.00;1.00
11107;DHT22;5607;48.302;14.294;2024-02-28T04:44:40;7.00;1.00
11107;DHT22;5607;48.302;14.294;2024-02-28T04:47:27;7.10;1.00
11107;DHT22;5607;48.302;14.294;2024-02-28T04:50:14;7.10;1.00
11107;DHT22;5607;48.302;14.294;2024-02-28T04:53:01;7.00;1.00
11107;DHT22;5607;48.302;14.294;2024-02-28T04:55:47;7.00;1.00
11107;DHT22;5607;48.302;14.294;2024-02-28T04:58:35;6.90;1.00
11107;DHT22;5607;48.302;14.294;2024-02-28T05:01:22;6.80;1.00
11107;DHT22;5607;48.302;14.294;2024-02-28T05:04:09;6.80;1.00
11107;DHT22;5607;48.302;14.294;2024-02-28T05:06:55;6.80;1.00
11107;DHT22;5607;48.302;14.294;2024-02-28T05:09:42;6.80;1.00
11107;DHT22;5607;48.302;14.294;2024-02-28T05:12:29;6.80;1.00
11107;DHT22;5607;48.302;14.294;2024-02-28T05:15:15;6.70;1.00
11107;DHT22;5607;48.302;14.294;2024-02-28T05:18:03;6.70;1.00
11107;DHT22;5607;48.302;14.294;2024-02-28T05:20:50;6.80;1.00
11107;DHT22;5607;48.302;14.294;2024-02-28T05:23:36;6.80;1.00
11107;DHT22;5607;48.302;14.294;2024-02-28T05:26:23;6.80;1.00
11107;DHT22;5607;48.302;14.294;2024-02-28T05:29:10;6.80;1.00
11107;DHT22;5607;48.302;14.294;2024-02-28T05:31:57;6.80;1.00
11107;DHT22;5607;48.302;14.294;2024-02-28T05:34:43;6.80;1.00
11107;DHT22;5607;48.302;14.294;2024-02-28T05:37:31;6.90;1.00
11107;DHT22;5607;48.302;14.294;2024-02-28T05:40:18;7.00;1.00
11107;DHT22;5607;48.302;14.294;2024-02-28T05:43:05;7.00;1.00
11107;DHT22;5607;48.302;14.294;2024-02-28T05:45:51;7.00;1.00
11107;DHT22;5607;48.302;14.294;2024-02-28T05:48:40;7.00;1.00
11107;DHT22;5607;48.302;14.294;2024-02-28T05:51:27;7.10;1.00
11107;DHT22;5607;48.302;14.294;2024-02-28T05:54:13;7.20;1.00
11107;DHT22;5607;48.302;14.294;2024-02-28T05:57:00;7.10;1.00
11107;DHT22;5607;48.302;14.294;2024-02-28T05:59:48;7.20;1.00
11107;DHT22;5607;48.302;14.294;2024-02-28T06:02:34;7.20;1.00
11107;DHT22;5607;48.302;14.294;2024-02-28T06:08:29;7.40;1.00
11107;DHT22;5607;48.302;14.294;2024-02-28T06:11:17;7.40;1.00
11107;DHT22;5607;48.302;14.294;2024-02-28T06:14:05;7.40;1.00
11107;DHT22;5607;48.302;14.294;2024-02-28T06:16:51;7.40;1.00
11107;DHT22;5607;48.302;14.294;2024-02-28T06:19:38;7.30;1.00
11107;DHT22;5607;48.302;14.294;2024-02-28T06:22:24;7.30;1.00
11107;DHT22;5607;48.302;14.294;2024-02-28T06:25:11;7.30;1.00
11107;DHT22;5607;48.302;14.294;2024-02-28T06:28:05;7.30;1.00
11107;DHT22;5607;48.302;14.294;2024-02-28T06:30:53;7.30;1.00
11107;DHT22;5607;48.302;14.294;2024-02-28T06:33:39;7.30;1.00
11107;DHT22;5607;48.302;14.294;2024-02-28T06:36:26;7.20;1.00
11107;DHT22;5607;48.302;14.294;2024-02-28T06:39:12;7.30;1.00
11107;DHT22;5607;48.302;14.294;2024-02-28T06:41:59;7.20;1.00
11107;DHT22;5607;48.302;14.294;2024-02-28T06:44:45;7.30;1.00
11107;DHT22;5607;48.302;14.294;2024-02-28T06:47:32;7.40;1.00
11107;DHT22;5607;48.302;14.294;2024-02-28T06:50:19;7.40;1.00
11107;DHT22;5607;48.302;14.294;2024-02-28T06:53:05;7.40;1.00
11107;DHT22;5607;48.302;14.294;2024-02-28T06:55:52;7.50;1.00
11107;DHT22;5607;48.302;14.294;2024-02-28T06:58:39;7.60;1.00
11107;DHT22;5607;48.302;14.294;2024-02-28T07:01:25;7.50;1.00
11107;DHT22;5607;48.302;14.294;2024-02-28T07:04:12;7.50;1.00
11107;DHT22;5607;48.302;14.294;2024-02-28T07:06:59;7.60;1.00
11107;DHT22;5607;48.302;14.294;2024-02-28T07:09:45;7.70;1.00
11107;DHT22;5607;48.302;14.294;2024-02-28T07:12:32;7.70;1.00
11107;DHT22;5607;48.302;14.294;2024-02-28T07:15:19;7.70;1.00
11107;DHT22;5607;48.302;14.294;2024-02-28T07:18:07;7.80;1.00
11107;DHT22;5607;48.302;14.294;2024-02-28T07:20:54;7.90;1.00
11107;DHT22;5607;48.302;14.294;2024-02-28T07:23:41;8.00;1.00
11107;DHT22;5607;48.302;14.294;2024-02-28T07:26:27;8.10;1.00
11107;DHT22;5607;48.302;14.294;2024-02-28T07:29:14;8.10;1.00
11107;DHT22;5607;48.302;14.294;2024-02-28T07:32:00;8.20;99.90
11107;DHT22;5607;48.302;14.294;2024-02-28T07:34:48;8.10;99.90
11107;DHT22;5607;48.302;14.294;2024-02-28T07:37:35;8.20;99.90
11107;DHT22;5607;48.302;14.294;2024-02-28T07:40:22;8.10;99.90
11107;DHT22;5607;48.302;14.294;2024-02-28T07:43:08;8.00;99.90
11107;DHT22;5607;48.302;14.294;2024-02-28T07:45:55;8.00;99.90
11107;DHT22;5607;48.302;14.294;2024-02-28T07:48:41;8.10;99.90
11107;DHT22;5607;48.302;14.294;2024-02-28T07:51:29;8.20;99.90
11107;DHT22;5607;48.302;14.294;2024-02-28T07:54:15;8.30;99.90
11107;DHT22;5607;48.302;14.294;2024-02-28T07:57:02;8.50;99.90
11107;DHT22;5607;48.302;14.294;2024-02-28T07:59:49;8.50;99.90
11107;DHT22;5607;48.302;14.294;2024-02-28T08:02:36;8.50;99.90
11107;DHT22;5607;48.302;14.294;2024-02-28T08:05:25;8.50;99.90
11107;DHT22;5607;48.302;14.294;2024-02-28T08:08:11;8.40;99.90
11107;DHT22;5607;48.302;14.294;2024-02-28T08:10:58;8.50;99.90
11107;DHT22;5607;48.302;14.294;2024-02-28T08:13:44;8.50;99.90
11107;DHT22;5607;48.302;14.294;2024-02-28T08:16:31;8.60;99.90
11107;DHT22;5607;48.302;14.294;2024-02-28T08:19:18;8.80;99.90
11107;DHT22;5607;48.302;14.294;2024-02-28T08:22:04;8.80;99.90
11107;DHT22;5607;48.302;14.294;2024-02-28T08:24:51;8.90;99.90
11107;DHT22;5607;48.302;14.294;2024-02-28T08:27:38;9.00;99.90
11107;DHT22;5607;48.302;14.294;2024-02-28T08:30:25;9.00;99.90
11107;DHT22;5607;48.302;14.294;2024-02-28T08:33:14;9.20;99.90
11107;DHT22;5607;48.302;14.294;2024-02-28T08:36:00;9.10;99.90
11107;DHT22;5607;48.302;14.294;2024-02-28T08:38:47;9.20;99.90
11107;DHT22;5607;48.302;14.294;2024-02-28T08:41:34;9.30;99.90
11107;DHT22;5607;48.302;14.294;2024-02-28T08:44:20;9.40;99.90
11107;DHT22;5607;48.302;14.294;2024-02-28T08:47:07;9.40;99.90
11107;DHT22;5607;48.302;14.294;2024-02-28T08:49:58;9.40;99.90
11107;DHT22;5607;48.302;14.294;2024-02-28T08:52:44;9.50;99.90
11107;DHT22;5607;48.302;14.294;2024-02-28T08:55:31;9.60;99.90
11107;DHT22;5607;48.302;14.294;2024-02-28T08:58:17;9.50;99.90
11107;DHT22;5607;48.302;14.294;2024-02-28T09:01:05;9.60;99.90
11107;DHT22;5607;48.302;14.294;2024-02-28T09:03:51;9.60;99.90
11107;DHT22;5607;48.302;14.294;2024-02-28T09:06:40;9.60;99.90
11107;DHT22;5607;48.302;14.294;2024-02-28T09:09:27;9.60;99.90
11107;DHT22;5607;48.302;14.294;2024-02-28T09:12:20;9.60;99.90
11107;DHT22;5607;48.302;14.294;2024-02-28T09:15:06;9.60;99.90
11107;DHT22;5607;48.302;14.294;2024-02-28T09:17:53;9.30;99.90
11107;DHT22;5607;48.302;14.294;2024-02-28T09:20:40;9.30;99.90
11107;DHT22;5607;48.302;14.294;2024-02-28T09:23:27;9.30;99.90
11107;DHT22;5607;48.302;14.294;2024-02-28T09:26:14;9.20;99.90
11107;DHT22;5607;48.302;14.294;2024-02-28T09:29:00;9.00;99.90
11107;DHT22;5607;48.302;14.294;2024-02-28T09:31:47;9.20;99.90
11107;DHT22;5607;48.302;14.294;2024-02-28T09:34:33;9.20;99.90
11107;DHT22;5607;48.302;14.294;2024-02-28T09:37:20;9.20;99.90
11107;DHT22;5607;48.302;14.294;2024-02-28T09:40:09;9.00;99.90
11107;DHT22;5607;48.302;14.294;2024-02-28T09:43:05;8.90;99.90
11107;DHT22;5607;48.302;14.294;2024-02-28T09:46:13;9.20;99.90
11107;DHT22;5607;48.302;14.294;2024-02-28T09:49:04;9.40;99.90
11107;DHT22;5607;48.302;14.294;2024-02-28T09:51:51;9.30;99.90
11107;DHT22;5607;48.302;14.294;2024-02-28T09:54:38;9.50;99.90
11107;DHT22;5607;48.302;14.294;2024-02-28T09:57:24;9.80;99.90
11107;DHT22;5607;48.302;14.294;2024-02-28T10:00:15;10.20;99.90
11107;DHT22;5607;48.302;14.294;2024-02-28T10:03:05;10.20;99.90
11107;DHT22;5607;48.302;14.294;2024-02-28T10:05:53;10.10;99.90
11107;DHT22;5607;48.302;14.294;2024-02-28T10:08:40;10.10;99.90
11107;DHT22;5607;48.302;14.294;2024-02-28T10:11:27;10.20;99.90
11107;DHT22;5607;48.302;14.294;2024-02-28T10:14:19;9.90;99.90
11107;DHT22;5607;48.302;14.294;2024-02-28T10:17:06;10.00;99.90
11107;DHT22;5607;48.302;14.294;2024-02-28T10:19:54;10.30;99.90
11107;DHT22;5607;48.302;14.294;2024-02-28T10:22:44;10.60;99.90
11107;DHT22;5607;48.302;14.294;2024-02-28T10:25:31;10.70;99.90
11107;DHT22;5607;48.302;14.294;2024-02-28T10:28:18;10.90;99.90
11107;DHT22;5607;48.302;14.294;2024-02-28T10:31:05;10.90;99.90
11107;DHT22;5607;48.302;14.294;2024-02-28T10:33:53;10.70;99.90
11107;DHT22;5607;48.302;14.294;2024-02-28T10:36:40;10.70;99.90
11107;DHT22;5607;48.302;14.294;2024-02-28T10:39:27;10.70;99.90
11107;DHT22;5607;48.302;14.294;2024-02-28T10:42:16;10.90;99.90
11107;DHT22;5607;48.302;14.294;2024-02-28T10:45:02;11.00;99.90
11107;DHT22;5607;48.302;14.294;2024-02-28T10:47:49;10.40;99.90
11107;DHT22;5607;48.302;14.294;2024-02-28T10:50:36;10.40;99.90
11107;DHT22;5607;48.302;14.294;2024-02-28T10:54:25;10.70;99.90
11107;DHT22;5607;48.302;14.294;2024-02-28T10:56:51;10.90;99.90
11107;DHT22;5607;48.302;14.294;2024-02-28T10:59:39;10.80;99.90
11107;DHT22;5607;48.302;14.294;2024-02-28T11:02:30;10.40;99.90
11107;DHT22;5607;48.302;14.294;2024-02-28T11:05:20;10.30;99.90
11107;DHT22;5607;48.302;14.294;2024-02-28T11:08:10;10.10;99.90
11107;DHT22;5607;48.302;14.294;2024-02-28T11:14:21;10.20;99.90
11107;DHT22;5607;48.302;14.294;2024-02-28T11:17:10;10.40;99.90
11107;DHT22;5607;48.302;14.294;2024-02-28T11:19:57;10.40;99.90
11107;DHT22;5607;48.302;14.294;2024-02-28T11:22:44;10.50;99.90
11107;DHT22;5607;48.302;14.294;2024-02-28T11:25:30;10.60;99.90
11107;DHT22;5607;48.302;14.294;2024-02-28T11:28:17;10.90;99.90
11107;DHT22;5607;48.302;14.294;2024-02-28T11:31:09;11.10;99.90
11107;DHT22;5607;48.302;14.294;2024-02-28T11:33:55;11.40;99.90
11107;DHT22;5607;48.302;14.294;2024-02-28T11:36:42;11.40;99.90
11107;DHT22;5607;48.302;14.294;2024-02-28T11:39:29;11.50;99.90
11107;DHT22;5607;48.302;14.294;2024-02-28T11:42:17;11.50;99.90
11107;DHT22;5607;48.302;14.294;2024-02-28T11:45:04;11.80;99.90
11107;DHT22;5607;48.302;14.294;2024-02-28T11:47:51;11.80;99.90
11107;DHT22;5607;48.302;14.294;2024-02-28T11:50:38;11.50;99.90
11107;DHT22;5607;48.302;14.294;2024-02-28T11:53:25;11.40;99.90
11107;DHT22;5607;48.302;14.294;2024-02-28T11:56:14;11.50;99.90
11107;DHT22;5607;48.302;14.294;2024-02-28T11:59:03;11.60;99.90
11107;DHT22;5607;48.302;14.294;2024-02-28T12:01:51;11.80;99.90
11107;DHT22;5607;48.302;14.294;2024-02-28T12:04:39;11.80;99.90
11107;DHT22;5607;48.302;14.294;2024-02-28T12:07:29;11.80;99.90
11107;DHT22;5607;48.302;14.294;2024-02-28T12:10:16;12.10;99.90
11107;DHT22;5607;48.302;14.294;2024-02-28T12:13:03;12.20;99.90
11107;DHT22;5607;48.302;14.294;2024-02-28T12:15:49;12.30;99.90
11107;DHT22;5607;48.302;14.294;2024-02-28T12:18:36;12.00;99.90
11107;DHT22;5607;48.302;14.294;2024-02-28T12:21:23;12.20;99.90
11107;DHT22;5607;48.302;14.294;2024-02-28T12:24:10;12.40;99.90
11107;DHT22;5607;48.302;14.294;2024-02-28T12:26:57;12.40;99.90
11107;DHT22;5607;48.302;14.294;2024-02-28T12:29:43;12.30;99.90
11107;DHT22;5607;48.302;14.294;2024-02-28T12:32:30;12.00;99.90
11107;DHT22;5607;48.302;14.294;2024-02-28T12:35:17;12.00;99.90
11107;DHT22;5607;48.302;14.294;2024-02-28T12:38:03;11.80;99.90
11107;DHT22;5607;48.302;14.294;2024-02-28T12:40:50;11.80;99.90
11107;DHT22;5607;48.302;14.294;2024-02-28T12:43:37;11.60;99.90
11107;DHT22;5607;48.302;14.294;2024-02-28T12:46:25;11.60;99.90
11107;DHT22;5607;48.302;14.294;2024-02-28T12:49:12;11.50;99.90
11107;DHT22;5607;48.302;14.294;2024-02-28T12:51:58;11.60;99.90
11107;DHT22;5607;48.302;14.294;2024-02-28T12:54:45;11.70;99.90
11107;DHT22;5607;48.302;14.294;2024-02-28T12:57:31;11.70;99.90
11107;DHT22;5607;48.302;14.294;2024-02-28T13:00:18;11.30;99.90
11107;DHT22;5607;48.302;14.294;2024-02-28T13:03:05;11.20;99.90
11107;DHT22;5607;48.302;14.294;2024-02-28T13:05:52;11.30;99.90
11107;DHT22;5607;48.302;14.294;2024-02-28T13:08:38;11.20;99.90
11107;DHT22;5607;48.302;14.294;2024-02-28T13:11:25;11.10;99.90
11107;DHT22;5607;48.302;14.294;2024-02-28T13:14:12;11.40;99.90
11107;DHT22;5607;48.302;14.294;2024-02-28T13:16:58;11.70;99.90
11107;DHT22;5607;48.302;14.294;2024-02-28T13:19:45;11.50;99.90
11107;DHT22;5607;48.302;14.294;2024-02-28T13:22:31;11.40;99.90
11107;DHT22;5607;48.302;14.294;2024-02-28T13:25:18;11.00;99.90
11107;DHT22;5607;48.302;14.294;2024-02-28T13:28:05;11.00;99.90
11107;DHT22;5607;48.302;14.294;2024-02-28T13:30:52;10.90;99.90
11107;DHT22;5607;48.302;14.294;2024-02-28T13:33:39;10.70;99.90
11107;DHT22;5607;48.302;14.294;2024-02-28T13:36:27;10.50;99.90
11107;DHT22;5607;48.302;14.294;2024-02-28T13:39:14;10.20;99.90
11107;DHT22;5607;48.302;14.294;2024-02-28T13:42:03;10.30;99.90
11107;DHT22;5607;48.302;14.294;2024-02-28T13:44:55;10.20;99.90
11107;DHT22;5607;48.302;14.294;2024-02-28T13:47:41;10.10;99.90
11107;DHT22;5607;48.302;14.294;2024-02-28T13:50:28;10.40;99.90
11107;DHT22;5607;48.302;14.294;2024-02-28T13:53:17;10.60;99.90
11107;DHT22;5607;48.302;14.294;2024-02-28T13:56:04;10.60;99.90
11107;DHT22;5607;48.302;14.294;2024-02-28T13:58:53;10.80;99.90
11107;DHT22;5607;48.302;14.294;2024-02-28T14:01:40;10.90;99.90
11107;DHT22;5607;48.302;14.294;2024-02-28T14:04:26;11.00;99.90
11107;DHT22;5607;48.302;14.294;2024-02-28T14:07:13;10.90;99.90
11107;DHT22;5607;48.302;14.294;2024-02-28T14:10:02;10.70;99.90
11107;DHT22;5607;48.302;14.294;2024-02-28T14:12:49;10.90;99.90
11107;DHT22;5607;48.302;14.294;2024-02-28T14:15:38;11.20;99.90
11107;DHT22;5607;48.302;14.294;2024-02-28T14:18:25;11.40;99.90
11107;DHT22;5607;48.302;14.294;2024-02-28T14:21:11;11.30;99.90
11107;DHT22;5607;48.302;14.294;2024-02-28T14:24:00;11.40;99.90
11107;DHT22;5607;48.302;14.294;2024-02-28T14:26:46;11.40;99.90
11107;DHT22;5607;48.302;14.294;2024-02-28T14:29:33;11.10;99.90
11107;DHT22;5607;48.302;14.294;2024-02-28T14:32:19;11.10;99.90
11107;DHT22;5607;48.302;14.294;2024-02-28T14:35:07;10.80;99.90
11107;DHT22;5607;48.302;14.294;2024-02-28T14:37:54;10.90;99.90
11107;DHT22;5607;48.302;14.294;2024-02-28T14:40:41;11.10;99.90
11107;DHT22;5607;48.302;14.294;2024-02-28T14:43:27;11.30;99.90
11107;DHT22;5607;48.302;14.294;2024-02-28T14:46:16;11.30;99.90
11107;DHT22;5607;48.302;14.294;2024-02-28T14:49:08;11.10;99.90
11107;DHT22;5607;48.302;14.294;2024-02-28T14:51:57;10.90;99.90
11107;DHT22;5607;48.302;14.294;2024-02-28T14:54:46;10.90;99.90
11107;DHT22;5607;48.302;14.294;2024-02-28T14:57:32;10.90;99.90
11107;DHT22;5607;48.302;14.294;2024-02-28T15:00:19;10.70;99.90
11107;DHT22;5607;48.302;14.294;2024-02-28T15:03:07;10.70;99.90
11107;DHT22;5607;48.302;14.294;2024-02-28T15:05:53;10.60;99.90
11107;DHT22;5607;48.302;14.294;2024-02-28T15:08:40;10.70;99.90
11107;DHT22;5607;48.302;14.294;2024-02-28T15:11:26;10.70;99.90
11107;DHT22;5607;48.302;14.294;2024-02-28T15:14:13;10.70;99.90
11107;DHT22;5607;48.302;14.294;2024-02-28T15:17:00;10.60;99.90
11107;DHT22;5607;48.302;14.294;2024-02-28T15:19:48;10.60;99.90
11107;DHT22;5607;48.302;14.294;2024-02-28T15:22:34;10.50;99.90
11107;DHT22;5607;48.302;14.294;2024-02-28T15:25:22;10.40;99.90
11107;DHT22;5607;48.302;14.294;2024-02-28T15:28:09;10.40;99.90
11107;DHT22;5607;48.302;14.294;2024-02-28T15:30:55;10.50;99.90
11107;DHT22;5607;48.302;14.294;2024-02-28T15:33:42;10.30;99.90
11107;DHT22;5607;48.302;14.294;2024-02-28T15:36:29;10.40;99.90
11107;DHT22;5607;48.302;14.294;2024-02-28T15:39:15;10.40;99.90
11107;DHT22;5607;48.302;14.294;2024-02-28T15:42:05;10.30;99.90
11107;DHT22;5607;48.302;14.294;2024-02-28T15:44:53;10.20;99.90
11107;DHT22;5607;48.302;14.294;2024-02-28T15:47:40;10.20;99.90
11107;DHT22;5607;48.302;14.294;2024-02-28T15:50:27;10.20;99.90
11107;DHT22;5607;48.302;14.294;2024-02-28T15:53:14;10.20;99.90
11107;DHT22;5607;48.302;14.294;2024-02-28T15:56:01;10.20;99.90
11107;DHT22;5607;48.302;14.294;2024-02-28T15:58:47;10.20;99.90
11107;DHT22;5607;48.302;14.294;2024-02-28T16:01:34;10.10;99.90
11107;DHT22;5607;48.302;14.294;2024-02-28T16:04:20;10.00;99.90
11107;DHT22;5607;48.302;14.294;2024-02-28T16:10:14;10.00;99.90
11107;DHT22;5607;48.302;14.294;2024-02-28T16:13:01;9.90;99.90
11107;DHT22;5607;48.302;14.294;2024-02-28T16:15:49;9.90;99.90
11107;DHT22;5607;48.302;14.294;2024-02-28T16:18:36;9.80;99.90
11107;DHT22;5607;48.302;14.294;2024-02-28T16:21:23;9.90;99.90
11107;DHT22;5607;48.302;14.294;2024-02-28T16:24:09;9.80;99.90
11107;DHT22;5607;48.302;14.294;2024-02-28T16:26:56;10.00;99.90
11107;DHT22;5607;48.302;14.294;2024-02-28T16:29:42;10.00;99.90
11107;DHT22;5607;48.302;14.294;2024-02-28T16:32:29;10.10;99.90
11107;DHT22;5607;48.302;14.294;2024-02-28T16:35:16;9.90;99.90
11107;DHT22;5607;48.302;14.294;2024-02-28T16:38:03;9.70;99.90
11107;DHT22;5607;48.302;14.294;2024-02-28T16:40:49;9.60;99.90
11107;DHT22;5607;48.302;14.294;2024-02-28T16:43:36;9.50;99.90
11107;DHT22;5607;48.302;14.294;2024-02-28T16:46:23;9.60;99.90
11107;DHT22;5607;48.302;14.294;2024-02-28T16:49:10;9.70;99.90
11107;DHT22;5607;48.302;14.294;2024-02-28T16:51:56;9.60;99.90
11107;DHT22;5607;48.302;14.294;2024-02-28T16:54:43;9.60;99.90
11107;DHT22;5607;48.302;14.294;2024-02-28T16:57:30;9.60;99.90
11107;DHT22;5607;48.302;14.294;2024-02-28T17:00:17;9.60;99.90
11107;DHT22;5607;48.302;14.294;2024-02-28T17:03:05;9.60;99.90
11107;DHT22;5607;48.302;14.294;2024-02-28T17:05:53;9.60;99.90
11107;DHT22;5607;48.302;14.294;2024-02-28T17:08:41;9.80;99.90
11107;DHT22;5607;48.302;14.294;2024-02-28T17:11:28;9.70;99.90
11107;DHT22;5607;48.302;14.294;2024-02-28T17:14:14;9.60;99.90
11107;DHT22;5607;48.302;14.294;2024-02-28T17:17:01;9.50;99.90
11107;DHT22;5607;48.302;14.294;2024-02-28T17:19:48;9.60;99.90
11107;DHT22;5607;48.302;14.294;2024-02-28T17:22:35;9.60;99.90
11107;DHT22;5607;48.302;14.294;2024-02-28T17:25:22;9.60;99.90
11107;DHT22;5607;48.302;14.294;2024-02-28T17:28:09;9.60;99.90
11107;DHT22;5607;48.302;14.294;2024-02-28T17:30:55;9.50;99.90
11107;DHT22;5607;48.302;14.294;2024-02-28T17:33:42;9.50;99.90
11107;DHT22;5607;48.302;14.294;2024-02-28T17:36:29;9.60;99.90
11107;DHT22;5607;48.302;14.294;2024-02-28T17:39:15;9.60;99.90
11107;DHT22;5607;48.302;14.294;2024-02-28T17:42:03;9.70;99.90
11107;DHT22;5607;48.302;14.294;2024-02-28T17:44:50;9.60;99.90
11107;DHT22;5607;48.302;14.294;2024-02-28T17:47:37;9.50;99.90
11107;DHT22;5607;48.302;14.294;2024-02-28T17:50:24;9.50;99.90
11107;DHT22;5607;48.302;14.294;2024-02-28T17:53:12;9.60;99.90
11107;DHT22;5607;48.302;14.294;2024-02-28T17:55:58;9.60;99.90
11107;DHT22;5607;48.302;14.294;2024-02-28T17:58:45;9.70;99.90
11107;DHT22;5607;48.302;14.294;2024-02-28T18:01:32;9.70;99.90
11107;DHT22;5607;48.302;14.294;2024-02-28T18:04:18;9.70;99.90
11107;DHT22;5607;48.302;14.294;2024-02-28T18:07:05;9.80;99.90
11107;DHT22;5607;48.302;14.294;2024-02-28T18:09:52;9.80;99.90